KDDH

William H Morse State Airport

Bennington, Vermont, USA
METAR KDDH 231554Z AUTO 16008G16KT 10SM SCT060 BKN075 OVC110 02/M08 A3051 RMK AO2 SLP341 T00221078
Observed Flight Rules
Feb-23 @ 15:54 UTC (44 minutes ago) Visual Flight Rules
Wind Visibility Clouds
160° at 8 knots
 Gusting to 16 knots
10 miles
  • Scattered at 6,000' AGL
  • Broken at 7,500' AGL
  • Overcast at 11,000' AGL
Temperatures Readings
Current 2°C / 36°F
Dewpoint -8°C / 18°F
Humidity 48%
Altimeter 30.51" Hg
Pressure 1034.1 hPa
Elevation 244
METAR KDDH 231554Z AUTO 16008G16KT 10SM SCT060 BKN075 OVC110 02/M08 A3051 RMK AO2 SLP341 T00221078
Observed Flight Rules
Feb-23 @ 15:54 UTC
(44 minutes ago)
VFR
Wind Visibility
160° at 8 knots
 Gusting to 16 knots
10 miles
Clouds
  • Scattered at 6,000' AGL
  • Broken at 7,500' AGL
  • Overcast at 11,000' AGL
Temperature Dewpoint
2°C / 36°F -8°C / 18°F
Humidity Altimeter Pressure
48% 30.51" Hg 1034.1 hPa